sensor_id;sensor_type;location;lat;lon;timestamp;P1;durP1;ratioP1;P2;durP2;ratioP2
7471;SDS011;3777;48.722;8.110;2023-03-23T00:00:59;1.97;;;1.77;;
7471;SDS011;3777;48.722;8.110;2023-03-23T00:03:27;2.03;;;1.70;;
7471;SDS011;3777;48.722;8.110;2023-03-23T00:05:56;2.97;;;1.80;;
7471;SDS011;3777;48.722;8.110;2023-03-23T00:08:31;3.53;;;1.90;;
7471;SDS011;3777;48.722;8.110;2023-03-23T00:11:02;1.90;;;1.70;;
7471;SDS011;3777;48.722;8.110;2023-03-23T00:13:30;2.27;;;1.70;;
7471;SDS011;3777;48.722;8.110;2023-03-23T00:15:58;1.70;;;1.60;;
7471;SDS011;3777;48.722;8.110;2023-03-23T00:18:25;1.97;;;1.77;;
7471;SDS011;3777;48.722;8.110;2023-03-23T00:20:53;3.07;;;1.67;;
7471;SDS011;3777;48.722;8.110;2023-03-23T00:23:22;2.47;;;1.60;;
7471;SDS011;3777;48.722;8.110;2023-03-23T00:25:52;2.13;;;1.60;;
7471;SDS011;3777;48.722;8.110;2023-03-23T00:28:22;2.20;;;1.80;;
7471;SDS011;3777;48.722;8.110;2023-03-23T00:30:54;2.40;;;1.70;;
7471;SDS011;3777;48.722;8.110;2023-03-23T00:33:22;1.97;;;1.73;;
7471;SDS011;3777;48.722;8.110;2023-03-23T00:35:51;1.90;;;1.70;;
7471;SDS011;3777;48.722;8.110;2023-03-23T00:38:19;2.60;;;1.87;;
7471;SDS011;3777;48.722;8.110;2023-03-23T00:40:47;1.70;;;1.60;;
7471;SDS011;3777;48.722;8.110;2023-03-23T00:43:16;2.80;;;1.70;;
7471;SDS011;3777;48.722;8.110;2023-03-23T00:45:44;2.83;;;1.73;;
7471;SDS011;3777;48.722;8.110;2023-03-23T00:48:17;2.17;;;1.87;;
7471;SDS011;3777;48.722;8.110;2023-03-23T00:50:44;1.97;;;1.70;;
7471;SDS011;3777;48.722;8.110;2023-03-23T00:53:12;2.40;;;1.90;;
7471;SDS011;3777;48.722;8.110;2023-03-23T00:55:40;1.77;;;1.60;;
7471;SDS011;3777;48.722;8.110;2023-03-23T00:58:08;2.43;;;1.80;;
7471;SDS011;3777;48.722;8.110;2023-03-23T01:00:36;2.17;;;1.80;;
7471;SDS011;3777;48.722;8.110;2023-03-23T01:03:04;4.10;;;1.90;;
7471;SDS011;3777;48.722;8.110;2023-03-23T01:05:33;1.90;;;1.67;;
7471;SDS011;3777;48.722;8.110;2023-03-23T01:08:00;1.87;;;1.70;;
7471;SDS011;3777;48.722;8.110;2023-03-23T01:10:27;1.93;;;1.77;;
7471;SDS011;3777;48.722;8.110;2023-03-23T01:12:57;1.93;;;1.80;;
7471;SDS011;3777;48.722;8.110;2023-03-23T01:15:25;2.70;;;2.03;;
7471;SDS011;3777;48.722;8.110;2023-03-23T01:17:54;5.00;;;2.00;;
7471;SDS011;3777;48.722;8.110;2023-03-23T01:20:21;2.70;;;1.63;;
7471;SDS011;3777;48.722;8.110;2023-03-23T01:22:49;2.37;;;1.73;;
7471;SDS011;3777;48.722;8.110;2023-03-23T01:25:18;2.00;;;1.73;;
7471;SDS011;3777;48.722;8.110;2023-03-23T01:27:45;1.77;;;1.60;;
7471;SDS011;3777;48.722;8.110;2023-03-23T01:30:12;2.20;;;1.70;;
7471;SDS011;3777;48.722;8.110;2023-03-23T01:32:40;1.80;;;1.70;;
7471;SDS011;3777;48.722;8.110;2023-03-23T01:35:09;2.23;;;1.80;;
7471;SDS011;3777;48.722;8.110;2023-03-23T01:37:38;1.87;;;1.70;;
7471;SDS011;3777;48.722;8.110;2023-03-23T01:40:05;2.00;;;1.80;;
7471;SDS011;3777;48.722;8.110;2023-03-23T01:42:34;2.60;;;1.90;;
7471;SDS011;3777;48.722;8.110;2023-03-23T01:47:55;2.50;;;1.90;;
7471;SDS011;3777;48.722;8.110;2023-03-23T01:50:29;2.17;;;1.80;;
7471;SDS011;3777;48.722;8.110;2023-03-23T01:53:01;1.90;;;1.60;;
7471;SDS011;3777;48.722;8.110;2023-03-23T01:55:32;2.83;;;1.93;;
7471;SDS011;3777;48.722;8.110;2023-03-23T01:58:01;2.03;;;1.87;;
7471;SDS011;3777;48.722;8.110;2023-03-23T02:00:29;2.37;;;2.10;;
7471;SDS011;3777;48.722;8.110;2023-03-23T02:02:56;2.40;;;2.10;;
7471;SDS011;3777;48.722;8.110;2023-03-23T02:05:26;4.10;;;2.00;;
7471;SDS011;3777;48.722;8.110;2023-03-23T02:07:58;2.10;;;1.90;;
7471;SDS011;3777;48.722;8.110;2023-03-23T02:10:28;3.20;;;2.00;;
7471;SDS011;3777;48.722;8.110;2023-03-23T02:12:56;2.47;;;2.10;;
7471;SDS011;3777;48.722;8.110;2023-03-23T02:15:24;2.40;;;2.10;;
7471;SDS011;3777;48.722;8.110;2023-03-23T02:17:56;3.40;;;1.90;;
7471;SDS011;3777;48.722;8.110;2023-03-23T02:20:38;3.03;;;1.90;;
7471;SDS011;3777;48.722;8.110;2023-03-23T02:26:25;2.43;;;1.80;;
7471;SDS011;3777;48.722;8.110;2023-03-23T02:29:13;2.23;;;1.73;;
7471;SDS011;3777;48.722;8.110;2023-03-23T02:32:10;2.23;;;2.00;;
7471;SDS011;3777;48.722;8.110;2023-03-23T02:34:47;2.37;;;1.90;;
7471;SDS011;3777;48.722;8.110;2023-03-23T02:37:19;2.23;;;2.03;;
7471;SDS011;3777;48.722;8.110;2023-03-23T02:39:51;2.70;;;2.10;;
7471;SDS011;3777;48.722;8.110;2023-03-23T02:42:20;2.30;;;1.83;;
7471;SDS011;3777;48.722;8.110;2023-03-23T02:44:52;2.40;;;1.90;;
7471;SDS011;3777;48.722;8.110;2023-03-23T02:47:22;2.97;;;2.00;;
7471;SDS011;3777;48.722;8.110;2023-03-23T02:49:53;3.00;;;2.10;;
7471;SDS011;3777;48.722;8.110;2023-03-23T02:52:24;2.73;;;2.17;;
7471;SDS011;3777;48.722;8.110;2023-03-23T02:54:53;2.83;;;2.00;;
7471;SDS011;3777;48.722;8.110;2023-03-23T02:57:23;2.50;;;1.80;;
7471;SDS011;3777;48.722;8.110;2023-03-23T02:59:52;2.37;;;1.97;;
7471;SDS011;3777;48.722;8.110;2023-03-23T03:02:20;3.83;;;2.00;;
7471;SDS011;3777;48.722;8.110;2023-03-23T03:04:51;2.30;;;2.00;;
7471;SDS011;3777;48.722;8.110;2023-03-23T03:07:30;3.17;;;2.20;;
7471;SDS011;3777;48.722;8.110;2023-03-23T03:10:04;2.30;;;1.90;;
7471;SDS011;3777;48.722;8.110;2023-03-23T03:12:41;3.20;;;2.17;;
7471;SDS011;3777;48.722;8.110;2023-03-23T03:15:15;2.40;;;1.83;;
7471;SDS011;3777;48.722;8.110;2023-03-23T03:17:50;2.10;;;1.90;;
7471;SDS011;3777;48.722;8.110;2023-03-23T03:20:24;3.10;;;2.00;;
7471;SDS011;3777;48.722;8.110;2023-03-23T03:22:57;3.80;;;2.10;;
7471;SDS011;3777;48.722;8.110;2023-03-23T03:25:26;2.40;;;1.90;;
7471;SDS011;3777;48.722;8.110;2023-03-23T03:27:54;3.40;;;2.10;;
7471;SDS011;3777;48.722;8.110;2023-03-23T03:30:23;3.40;;;1.90;;
7471;SDS011;3777;48.722;8.110;2023-03-23T03:32:56;2.67;;;2.13;;
7471;SDS011;3777;48.722;8.110;2023-03-23T03:35:26;4.00;;;2.20;;
7471;SDS011;3777;48.722;8.110;2023-03-23T03:37:54;3.03;;;2.00;;
7471;SDS011;3777;48.722;8.110;2023-03-23T03:40:22;2.20;;;2.00;;
7471;SDS011;3777;48.722;8.110;2023-03-23T03:42:50;2.57;;;1.83;;
7471;SDS011;3777;48.722;8.110;2023-03-23T03:45:18;3.30;;;2.17;;
7471;SDS011;3777;48.722;8.110;2023-03-23T03:47:45;3.47;;;2.03;;
7471;SDS011;3777;48.722;8.110;2023-03-23T03:50:12;2.03;;;1.83;;
7471;SDS011;3777;48.722;8.110;2023-03-23T03:52:41;2.53;;;1.90;;
7471;SDS011;3777;48.722;8.110;2023-03-23T03:55:08;2.37;;;2.00;;
7471;SDS011;3777;48.722;8.110;2023-03-23T03:57:36;2.50;;;2.07;;
7471;SDS011;3777;48.722;8.110;2023-03-23T04:00:04;2.60;;;2.00;;
7471;SDS011;3777;48.722;8.110;2023-03-23T04:02:39;2.67;;;2.10;;
7471;SDS011;3777;48.722;8.110;2023-03-23T04:05:08;3.50;;;2.10;;
7471;SDS011;3777;48.722;8.110;2023-03-23T04:07:36;3.33;;;2.07;;
7471;SDS011;3777;48.722;8.110;2023-03-23T04:10:06;2.63;;;2.00;;
7471;SDS011;3777;48.722;8.110;2023-03-23T04:12:34;3.30;;;2.00;;
7471;SDS011;3777;48.722;8.110;2023-03-23T04:15:02;3.60;;;2.20;;
7471;SDS011;3777;48.722;8.110;2023-03-23T04:17:30;3.30;;;2.10;;
7471;SDS011;3777;48.722;8.110;2023-03-23T04:19:57;2.47;;;2.00;;
7471;SDS011;3777;48.722;8.110;2023-03-23T04:22:25;2.30;;;2.10;;
7471;SDS011;3777;48.722;8.110;2023-03-23T04:24:55;2.57;;;2.20;;
7471;SDS011;3777;48.722;8.110;2023-03-23T04:27:25;3.47;;;2.10;;
7471;SDS011;3777;48.722;8.110;2023-03-23T04:29:53;2.30;;;2.10;;
7471;SDS011;3777;48.722;8.110;2023-03-23T04:32:21;3.17;;;2.10;;
7471;SDS011;3777;48.722;8.110;2023-03-23T04:34:50;2.90;;;2.10;;
7471;SDS011;3777;48.722;8.110;2023-03-23T04:37:17;3.00;;;2.03;;
7471;SDS011;3777;48.722;8.110;2023-03-23T04:39:44;2.30;;;2.10;;
7471;SDS011;3777;48.722;8.110;2023-03-23T04:42:11;2.90;;;2.10;;
7471;SDS011;3777;48.722;8.110;2023-03-23T04:44:41;2.77;;;2.40;;
7471;SDS011;3777;48.722;8.110;2023-03-23T04:47:08;3.97;;;2.40;;
7471;SDS011;3777;48.722;8.110;2023-03-23T04:49:35;2.27;;;2.07;;
7471;SDS011;3777;48.722;8.110;2023-03-23T04:52:02;3.43;;;2.10;;
7471;SDS011;3777;48.722;8.110;2023-03-23T04:54:30;2.53;;;2.00;;
7471;SDS011;3777;48.722;8.110;2023-03-23T04:56:57;3.63;;;2.10;;
7471;SDS011;3777;48.722;8.110;2023-03-23T04:59:24;2.80;;;2.03;;
7471;SDS011;3777;48.722;8.110;2023-03-23T05:01:54;3.20;;;1.90;;
7471;SDS011;3777;48.722;8.110;2023-03-23T05:04:21;3.70;;;2.10;;
7471;SDS011;3777;48.722;8.110;2023-03-23T05:06:50;3.47;;;1.97;;
7471;SDS011;3777;48.722;8.110;2023-03-23T05:09:17;3.80;;;2.13;;
7471;SDS011;3777;48.722;8.110;2023-03-23T05:11:46;2.90;;;2.27;;
7471;SDS011;3777;48.722;8.110;2023-03-23T05:14:12;2.53;;;2.00;;
7471;SDS011;3777;48.722;8.110;2023-03-23T05:16:40;2.93;;;2.00;;
7471;SDS011;3777;48.722;8.110;2023-03-23T05:19:08;2.40;;;2.20;;
7471;SDS011;3777;48.722;8.110;2023-03-23T05:21:35;3.73;;;2.10;;
7471;SDS011;3777;48.722;8.110;2023-03-23T05:24:02;3.67;;;2.10;;
7471;SDS011;3777;48.722;8.110;2023-03-23T05:26:29;2.10;;;1.80;;
7471;SDS011;3777;48.722;8.110;2023-03-23T05:28:57;2.80;;;2.30;;
7471;SDS011;3777;48.722;8.110;2023-03-23T05:31:24;4.07;;;2.30;;
7471;SDS011;3777;48.722;8.110;2023-03-23T05:33:51;3.33;;;2.30;;
7471;SDS011;3777;48.722;8.110;2023-03-23T05:36:20;2.40;;;2.07;;
7471;SDS011;3777;48.722;8.110;2023-03-23T05:38:48;3.40;;;2.43;;
7471;SDS011;3777;48.722;8.110;2023-03-23T05:41:14;3.07;;;2.47;;
7471;SDS011;3777;48.722;8.110;2023-03-23T05:43:42;3.70;;;2.73;;
7471;SDS011;3777;48.722;8.110;2023-03-23T05:46:09;3.50;;;2.77;;
7471;SDS011;3777;48.722;8.110;2023-03-23T05:48:36;3.33;;;2.63;;
7471;SDS011;3777;48.722;8.110;2023-03-23T05:51:03;3.83;;;2.50;;
7471;SDS011;3777;48.722;8.110;2023-03-23T05:53:32;3.80;;;2.53;;
7471;SDS011;3777;48.722;8.110;2023-03-23T05:56:00;3.43;;;2.60;;
7471;SDS011;3777;48.722;8.110;2023-03-23T05:58:28;3.20;;;2.70;;
7471;SDS011;3777;48.722;8.110;2023-03-23T06:00:55;2.97;;;2.77;;
7471;SDS011;3777;48.722;8.110;2023-03-23T06:03:22;3.20;;;2.90;;
7471;SDS011;3777;48.722;8.110;2023-03-23T06:05:49;4.50;;;2.50;;
7471;SDS011;3777;48.722;8.110;2023-03-23T06:08:17;5.43;;;2.53;;
7471;SDS011;3777;48.722;8.110;2023-03-23T06:10:45;4.17;;;2.57;;
7471;SDS011;3777;48.722;8.110;2023-03-23T06:13:13;5.03;;;2.70;;
7471;SDS011;3777;48.722;8.110;2023-03-23T06:15:40;3.33;;;2.80;;
7471;SDS011;3777;48.722;8.110;2023-03-23T06:18:07;2.83;;;2.53;;
7471;SDS011;3777;48.722;8.110;2023-03-23T06:20:35;5.17;;;3.17;;
7471;SDS011;3777;48.722;8.110;2023-03-23T06:23:02;3.70;;;2.83;;
7471;SDS011;3777;48.722;8.110;2023-03-23T06:25:29;3.93;;;2.90;;
7471;SDS011;3777;48.722;8.110;2023-03-23T06:27:58;4.83;;;3.00;;
7471;SDS011;3777;48.722;8.110;2023-03-23T06:30:25;4.43;;;3.10;;
7471;SDS011;3777;48.722;8.110;2023-03-23T06:32:54;3.87;;;3.40;;
7471;SDS011;3777;48.722;8.110;2023-03-23T06:35:21;4.73;;;3.10;;
7471;SDS011;3777;48.722;8.110;2023-03-23T06:37:48;3.87;;;3.10;;
7471;SDS011;3777;48.722;8.110;2023-03-23T06:40:16;5.18;;;3.10;;
7471;SDS011;3777;48.722;8.110;2023-03-23T06:42:44;5.47;;;3.40;;
7471;SDS011;3777;48.722;8.110;2023-03-23T06:45:13;6.17;;;3.20;;
7471;SDS011;3777;48.722;8.110;2023-03-23T06:47:40;4.17;;;3.20;;
7471;SDS011;3777;48.722;8.110;2023-03-23T06:50:07;5.60;;;3.23;;
7471;SDS011;3777;48.722;8.110;2023-03-23T06:52:35;7.33;;;3.33;;
7471;SDS011;3777;48.722;8.110;2023-03-23T06:55:02;5.57;;;3.50;;
7471;SDS011;3777;48.722;8.110;2023-03-23T06:57:30;7.03;;;3.17;;
7471;SDS011;3777;48.722;8.110;2023-03-23T06:59:57;7.63;;;3.30;;
7471;SDS011;3777;48.722;8.110;2023-03-23T07:02:25;6.73;;;3.70;;
7471;SDS011;3777;48.722;8.110;2023-03-23T07:04:52;7.57;;;3.83;;
7471;SDS011;3777;48.722;8.110;2023-03-23T07:07:20;6.37;;;3.57;;
7471;SDS011;3777;48.722;8.110;2023-03-23T07:09:47;9.37;;;3.83;;
7471;SDS011;3777;48.722;8.110;2023-03-23T07:12:14;9.40;;;3.37;;
7471;SDS011;3777;48.722;8.110;2023-03-23T07:14:41;9.07;;;3.57;;
7471;SDS011;3777;48.722;8.110;2023-03-23T07:17:08;4.23;;;2.70;;
7471;SDS011;3777;48.722;8.110;2023-03-23T07:19:36;4.73;;;2.87;;
7471;SDS011;3777;48.722;8.110;2023-03-23T07:22:03;3.93;;;2.90;;
7471;SDS011;3777;48.722;8.110;2023-03-23T07:24:31;3.87;;;3.03;;
7471;SDS011;3777;48.722;8.110;2023-03-23T07:26:58;4.63;;;3.30;;
7471;SDS011;3777;48.722;8.110;2023-03-23T07:29:25;3.77;;;3.27;;
7471;SDS011;3777;48.722;8.110;2023-03-23T07:31:52;3.80;;;3.20;;
7471;SDS011;3777;48.722;8.110;2023-03-23T07:34:20;5.43;;;3.47;;
7471;SDS011;3777;48.722;8.110;2023-03-23T07:36:48;3.63;;;3.20;;
7471;SDS011;3777;48.722;8.110;2023-03-23T07:39:15;6.47;;;3.53;;
7471;SDS011;3777;48.722;8.110;2023-03-23T07:41:42;4.27;;;3.47;;
7471;SDS011;3777;48.722;8.110;2023-03-23T07:44:09;3.93;;;3.20;;
7471;SDS011;3777;48.722;8.110;2023-03-23T07:46:36;4.20;;;3.50;;
7471;SDS011;3777;48.722;8.110;2023-03-23T07:49:03;4.27;;;3.47;;
7471;SDS011;3777;48.722;8.110;2023-03-23T07:51:31;4.67;;;3.70;;
7471;SDS011;3777;48.722;8.110;2023-03-23T07:53:59;4.20;;;3.27;;
7471;SDS011;3777;48.722;8.110;2023-03-23T07:56:27;4.97;;;3.13;;
7471;SDS011;3777;48.722;8.110;2023-03-23T07:58:54;4.30;;;3.37;;
7471;SDS011;3777;48.722;8.110;2023-03-23T08:01:21;4.13;;;3.00;;
7471;SDS011;3777;48.722;8.110;2023-03-23T08:03:49;5.20;;;2.93;;
7471;SDS011;3777;48.722;8.110;2023-03-23T08:06:17;3.10;;;2.70;;
7471;SDS011;3777;48.722;8.110;2023-03-23T08:08:44;4.17;;;3.07;;
7471;SDS011;3777;48.722;8.110;2023-03-23T08:11:13;4.63;;;2.57;;
7471;SDS011;3777;48.722;8.110;2023-03-23T08:13:40;3.97;;;2.80;;
7471;SDS011;3777;48.722;8.110;2023-03-23T08:16:07;5.93;;;3.20;;
7471;SDS011;3777;48.722;8.110;2023-03-23T08:18:34;3.30;;;2.50;;
7471;SDS011;3777;48.722;8.110;2023-03-23T08:21:02;2.50;;;2.23;;
7471;SDS011;3777;48.722;8.110;2023-03-23T08:23:31;3.37;;;2.10;;
7471;SDS011;3777;48.722;8.110;2023-03-23T08:25:58;4.00;;;2.00;;
7471;SDS011;3777;48.722;8.110;2023-03-23T08:28:26;3.10;;;2.23;;
7471;SDS011;3777;48.722;8.110;2023-03-23T08:30:53;2.07;;;1.87;;
7471;SDS011;3777;48.722;8.110;2023-03-23T08:33:20;1.90;;;1.70;;
7471;SDS011;3777;48.722;8.110;2023-03-23T08:35:53;2.40;;;1.77;;
7471;SDS011;3777;48.722;8.110;2023-03-23T08:38:21;1.93;;;1.73;;
7471;SDS011;3777;48.722;8.110;2023-03-23T08:40:49;2.00;;;1.73;;
7471;SDS011;3777;48.722;8.110;2023-03-23T08:43:16;3.47;;;1.87;;
7471;SDS011;3777;48.722;8.110;2023-03-23T08:45:44;1.93;;;1.70;;
7471;SDS011;3777;48.722;8.110;2023-03-23T08:48:11;2.30;;;1.87;;
7471;SDS011;3777;48.722;8.110;2023-03-23T08:50:38;4.30;;;1.97;;
7471;SDS011;3777;48.722;8.110;2023-03-23T08:53:06;2.50;;;2.10;;
7471;SDS011;3777;48.722;8.110;2023-03-23T08:55:33;4.13;;;2.00;;
7471;SDS011;3777;48.722;8.110;2023-03-23T08:58:00;1.80;;;1.70;;
7471;SDS011;3777;48.722;8.110;2023-03-23T09:00:28;2.80;;;1.70;;
7471;SDS011;3777;48.722;8.110;2023-03-23T09:02:57;2.43;;;2.10;;
7471;SDS011;3777;48.722;8.110;2023-03-23T09:05:25;2.90;;;2.03;;
7471;SDS011;3777;48.722;8.110;2023-03-23T09:07:54;2.10;;;1.90;;
7471;SDS011;3777;48.722;8.110;2023-03-23T09:10:24;2.43;;;1.80;;
7471;SDS011;3777;48.722;8.110;2023-03-23T09:12:52;2.20;;;1.70;;
7471;SDS011;3777;48.722;8.110;2023-03-23T09:15:20;1.77;;;1.67;;
7471;SDS011;3777;48.722;8.110;2023-03-23T09:17:48;2.83;;;1.90;;
7471;SDS011;3777;48.722;8.110;2023-03-23T09:20:19;2.20;;;1.90;;
7471;SDS011;3777;48.722;8.110;2023-03-23T09:22:48;3.00;;;1.90;;
7471;SDS011;3777;48.722;8.110;2023-03-23T09:25:18;2.17;;;1.97;;
7471;SDS011;3777;48.722;8.110;2023-03-23T09:27:48;4.87;;;1.90;;
7471;SDS011;3777;48.722;8.110;2023-03-23T09:30:17;1.77;;;1.67;;
7471;SDS011;3777;48.722;8.110;2023-03-23T09:32:45;3.77;;;1.90;;
7471;SDS011;3777;48.722;8.110;2023-03-23T09:35:14;2.27;;;1.90;;
7471;SDS011;3777;48.722;8.110;2023-03-23T09:37:43;1.80;;;1.70;;
7471;SDS011;3777;48.722;8.110;2023-03-23T09:40:13;2.10;;;1.90;;
7471;SDS011;3777;48.722;8.110;2023-03-23T09:42:51;2.40;;;2.03;;
7471;SDS011;3777;48.722;8.110;2023-03-23T09:45:29;3.30;;;1.90;;
7471;SDS011;3777;48.722;8.110;2023-03-23T09:48:07;2.27;;;2.00;;
7471;SDS011;3777;48.722;8.110;2023-03-23T09:50:57;2.30;;;2.10;;
7471;SDS011;3777;48.722;8.110;2023-03-23T09:53:32;3.27;;;2.20;;
7471;SDS011;3777;48.722;8.110;2023-03-23T09:56:08;4.90;;;2.30;;
7471;SDS011;3777;48.722;8.110;2023-03-23T09:58:39;2.97;;;2.00;;
7471;SDS011;3777;48.722;8.110;2023-03-23T10:01:14;3.27;;;2.33;;
7471;SDS011;3777;48.722;8.110;2023-03-23T10:03:45;2.97;;;2.17;;
7471;SDS011;3777;48.722;8.110;2023-03-23T10:06:14;2.53;;;2.03;;
7471;SDS011;3777;48.722;8.110;2023-03-23T10:08:47;2.20;;;2.00;;
7471;SDS011;3777;48.722;8.110;2023-03-23T10:11:18;2.20;;;2.00;;
7471;SDS011;3777;48.722;8.110;2023-03-23T10:13:57;3.27;;;2.20;;
7471;SDS011;3777;48.722;8.110;2023-03-23T10:16:32;2.63;;;2.03;;
7471;SDS011;3777;48.722;8.110;2023-03-23T10:19:03;3.00;;;2.00;;
7471;SDS011;3777;48.722;8.110;2023-03-23T10:21:39;2.33;;;2.00;;
7471;SDS011;3777;48.722;8.110;2023-03-23T10:24:10;3.70;;;2.30;;
7471;SDS011;3777;48.722;8.110;2023-03-23T10:26:43;2.93;;;2.07;;
7471;SDS011;3777;48.722;8.110;2023-03-23T10:29:16;3.27;;;2.20;;
7471;SDS011;3777;48.722;8.110;2023-03-23T10:31:48;4.90;;;2.43;;
7471;SDS011;3777;48.722;8.110;2023-03-23T10:34:20;2.87;;;2.17;;
7471;SDS011;3777;48.722;8.110;2023-03-23T10:37:00;3.87;;;2.30;;
7471;SDS011;3777;48.722;8.110;2023-03-23T10:39:33;6.67;;;2.67;;
7471;SDS011;3777;48.722;8.110;2023-03-23T10:42:07;2.87;;;2.50;;
7471;SDS011;3777;48.722;8.110;2023-03-23T10:44:34;4.37;;;2.80;;
7471;SDS011;3777;48.722;8.110;2023-03-23T10:47:03;4.50;;;2.70;;
7471;SDS011;3777;48.722;8.110;2023-03-23T10:49:33;4.67;;;2.63;;
7471;SDS011;3777;48.722;8.110;2023-03-23T10:52:06;6.37;;;2.57;;
7471;SDS011;3777;48.722;8.110;2023-03-23T10:54:49;3.33;;;2.67;;
7471;SDS011;3777;48.722;8.110;2023-03-23T10:57:22;3.13;;;2.83;;
7471;SDS011;3777;48.722;8.110;2023-03-23T10:59:57;4.57;;;3.23;;
7471;SDS011;3777;48.722;8.110;2023-03-23T11:02:26;5.80;;;3.53;;
7471;SDS011;3777;48.722;8.110;2023-03-23T11:04:56;3.80;;;3.07;;
7471;SDS011;3777;48.722;8.110;2023-03-23T11:07:27;5.50;;;2.63;;
7471;SDS011;3777;48.722;8.110;2023-03-23T11:10:03;2.90;;;2.37;;
7471;SDS011;3777;48.722;8.110;2023-03-23T11:12:34;2.83;;;2.40;;
7471;SDS011;3777;48.722;8.110;2023-03-23T11:15:15;4.67;;;2.50;;
7471;SDS011;3777;48.722;8.110;2023-03-23T11:18:00;2.53;;;2.23;;
7471;SDS011;3777;48.722;8.110;2023-03-23T11:20:29;2.50;;;2.00;;
7471;SDS011;3777;48.722;8.110;2023-03-23T11:23:01;3.03;;;2.17;;
7471;SDS011;3777;48.722;8.110;2023-03-23T11:25:52;3.30;;;2.00;;
7471;SDS011;3777;48.722;8.110;2023-03-23T11:28:25;3.47;;;2.40;;
7471;SDS011;3777;48.722;8.110;2023-03-23T11:30:55;3.63;;;2.53;;
7471;SDS011;3777;48.722;8.110;2023-03-23T11:33:23;4.47;;;2.60;;
7471;SDS011;3777;48.722;8.110;2023-03-23T11:35:51;3.23;;;2.40;;
7471;SDS011;3777;48.722;8.110;2023-03-23T11:38:20;3.20;;;2.30;;
7471;SDS011;3777;48.722;8.110;2023-03-23T11:40:50;3.27;;;2.40;;
7471;SDS011;3777;48.722;8.110;2023-03-23T11:43:19;3.63;;;2.23;;
7471;SDS011;3777;48.722;8.110;2023-03-23T11:45:48;3.37;;;2.33;;
7471;SDS011;3777;48.722;8.110;2023-03-23T11:48:25;3.03;;;2.33;;
7471;SDS011;3777;48.722;8.110;2023-03-23T11:50:55;2.87;;;2.53;;
7471;SDS011;3777;48.722;8.110;2023-03-23T11:53:29;3.27;;;2.47;;
7471;SDS011;3777;48.722;8.110;2023-03-23T11:56:21;3.67;;;2.73;;
7471;SDS011;3777;48.722;8.110;2023-03-23T11:58:52;3.03;;;2.47;;
7471;SDS011;3777;48.722;8.110;2023-03-23T12:01:24;3.40;;;2.70;;
7471;SDS011;3777;48.722;8.110;2023-03-23T12:07:04;3.57;;;2.57;;
7471;SDS011;3777;48.722;8.110;2023-03-23T12:09:44;3.63;;;2.33;;
7471;SDS011;3777;48.722;8.110;2023-03-23T12:12:22;2.50;;;2.20;;
7471;SDS011;3777;48.722;8.110;2023-03-23T12:14:59;2.77;;;2.40;;
7471;SDS011;3777;48.722;8.110;2023-03-23T12:17:35;4.13;;;2.63;;
7471;SDS011;3777;48.722;8.110;2023-03-23T12:20:17;2.90;;;2.50;;
7471;SDS011;3777;48.722;8.110;2023-03-23T12:22:55;3.10;;;2.60;;
7471;SDS011;3777;48.722;8.110;2023-03-23T12:28:40;4.00;;;2.30;;
7471;SDS011;3777;48.722;8.110;2023-03-23T12:31:24;4.47;;;2.60;;
7471;SDS011;3777;48.722;8.110;2023-03-23T12:33:55;3.50;;;2.53;;
7471;SDS011;3777;48.722;8.110;2023-03-23T12:36:32;4.10;;;2.47;;
7471;SDS011;3777;48.722;8.110;2023-03-23T12:42:03;5.03;;;2.60;;
7471;SDS011;3777;48.722;8.110;2023-03-23T12:44:38;2.90;;;2.53;;
7471;SDS011;3777;48.722;8.110;2023-03-23T12:47:16;3.93;;;2.60;;
7471;SDS011;3777;48.722;8.110;2023-03-23T12:50:00;3.50;;;2.80;;
7471;SDS011;3777;48.722;8.110;2023-03-23T12:52:35;2.67;;;2.40;;
7471;SDS011;3777;48.722;8.110;2023-03-23T12:55:07;3.97;;;2.87;;
7471;SDS011;3777;48.722;8.110;2023-03-23T12:57:45;3.80;;;2.40;;
7471;SDS011;3777;48.722;8.110;2023-03-23T13:00:20;3.03;;;2.57;;
7471;SDS011;3777;48.722;8.110;2023-03-23T13:02:53;3.27;;;2.40;;
7471;SDS011;3777;48.722;8.110;2023-03-23T13:05:28;5.80;;;2.50;;
7471;SDS011;3777;48.722;8.110;2023-03-23T13:08:03;4.60;;;2.60;;
7471;SDS011;3777;48.722;8.110;2023-03-23T13:10:36;4.13;;;2.70;;
7471;SDS011;3777;48.722;8.110;2023-03-23T13:13:08;2.90;;;2.50;;
7471;SDS011;3777;48.722;8.110;2023-03-23T13:15:43;3.72;;;2.55;;
7471;SDS011;3777;48.722;8.110;2023-03-23T13:18:18;3.17;;;2.43;;
7471;SDS011;3777;48.722;8.110;2023-03-23T13:20:53;4.83;;;2.70;;
7471;SDS011;3777;48.722;8.110;2023-03-23T13:23:24;3.67;;;2.50;;
7471;SDS011;3777;48.722;8.110;2023-03-23T13:25:56;2.87;;;2.30;;
7471;SDS011;3777;48.722;8.110;2023-03-23T13:28:27;2.80;;;2.50;;
7471;SDS011;3777;48.722;8.110;2023-03-23T13:30:58;4.30;;;2.73;;
7471;SDS011;3777;48.722;8.110;2023-03-23T13:33:31;3.43;;;2.60;;
7471;SDS011;3777;48.722;8.110;2023-03-23T13:36:08;3.63;;;2.90;;
7471;SDS011;3777;48.722;8.110;2023-03-23T13:38:37;4.10;;;2.70;;
7471;SDS011;3777;48.722;8.110;2023-03-23T13:41:11;2.90;;;2.50;;
7471;SDS011;3777;48.722;8.110;2023-03-23T13:43:40;3.17;;;2.37;;
7471;SDS011;3777;48.722;8.110;2023-03-23T13:46:11;4.07;;;2.40;;
7471;SDS011;3777;48.722;8.110;2023-03-23T13:49:02;5.57;;;2.60;;
7471;SDS011;3777;48.722;8.110;2023-03-23T13:51:33;2.63;;;2.43;;
7471;SDS011;3777;48.722;8.110;2023-03-23T13:54:12;3.27;;;2.57;;
7471;SDS011;3777;48.722;8.110;2023-03-23T13:56:42;2.90;;;2.60;;
7471;SDS011;3777;48.722;8.110;2023-03-23T13:59:14;3.93;;;2.57;;
7471;SDS011;3777;48.722;8.110;2023-03-23T14:01:44;4.00;;;2.60;;
7471;SDS011;3777;48.722;8.110;2023-03-23T14:04:12;3.67;;;2.50;;
7471;SDS011;3777;48.722;8.110;2023-03-23T14:06:42;3.37;;;2.60;;
7471;SDS011;3777;48.722;8.110;2023-03-23T14:09:12;3.87;;;2.63;;
7471;SDS011;3777;48.722;8.110;2023-03-23T14:11:47;3.30;;;2.80;;
7471;SDS011;3777;48.722;8.110;2023-03-23T14:14:19;4.10;;;2.43;;
7471;SDS011;3777;48.722;8.110;2023-03-23T14:16:52;4.90;;;2.60;;
7471;SDS011;3777;48.722;8.110;2023-03-23T14:19:21;2.73;;;2.50;;
7471;SDS011;3777;48.722;8.110;2023-03-23T14:21:51;3.50;;;2.63;;
7471;SDS011;3777;48.722;8.110;2023-03-23T14:24:21;4.63;;;2.93;;
7471;SDS011;3777;48.722;8.110;2023-03-23T14:26:50;6.17;;;2.70;;
7471;SDS011;3777;48.722;8.110;2023-03-23T14:29:18;3.73;;;2.43;;
7471;SDS011;3777;48.722;8.110;2023-03-23T14:31:48;3.40;;;2.77;;
7471;SDS011;3777;48.722;8.110;2023-03-23T14:34:21;4.03;;;2.80;;
7471;SDS011;3777;48.722;8.110;2023-03-23T14:36:52;2.70;;;2.40;;
7471;SDS011;3777;48.722;8.110;2023-03-23T14:39:22;6.13;;;2.80;;
7471;SDS011;3777;48.722;8.110;2023-03-23T14:41:52;4.43;;;2.87;;
7471;SDS011;3777;48.722;8.110;2023-03-23T14:44:22;4.03;;;2.90;;
7471;SDS011;3777;48.722;8.110;2023-03-23T14:46:51;3.37;;;2.40;;
7471;SDS011;3777;48.722;8.110;2023-03-23T14:49:24;4.60;;;2.70;;
7471;SDS011;3777;48.722;8.110;2023-03-23T14:51:54;4.80;;;3.00;;
7471;SDS011;3777;48.722;8.110;2023-03-23T14:54:22;3.67;;;2.40;;
7471;SDS011;3777;48.722;8.110;2023-03-23T14:56:51;3.10;;;2.60;;
7471;SDS011;3777;48.722;8.110;2023-03-23T14:59:18;6.27;;;3.03;;
7471;SDS011;3777;48.722;8.110;2023-03-23T15:01:45;3.40;;;2.47;;
7471;SDS011;3777;48.722;8.110;2023-03-23T15:04:16;3.60;;;2.60;;
7471;SDS011;3777;48.722;8.110;2023-03-23T15:06:45;4.43;;;2.70;;
7471;SDS011;3777;48.722;8.110;2023-03-23T15:09:15;5.10;;;2.93;;
7471;SDS011;3777;48.722;8.110;2023-03-23T15:11:50;4.20;;;2.70;;
7471;SDS011;3777;48.722;8.110;2023-03-23T15:14:20;3.67;;;2.80;;
7471;SDS011;3777;48.722;8.110;2023-03-23T15:16:49;4.40;;;2.90;;
7471;SDS011;3777;48.722;8.110;2023-03-23T15:19:20;4.33;;;2.90;;
7471;SDS011;3777;48.722;8.110;2023-03-23T15:21:50;3.97;;;2.90;;
7471;SDS011;3777;48.722;8.110;2023-03-23T15:24:20;4.10;;;2.97;;
7471;SDS011;3777;48.722;8.110;2023-03-23T15:26:52;4.83;;;3.13;;
7471;SDS011;3777;48.722;8.110;2023-03-23T15:29:20;3.67;;;3.10;;
7471;SDS011;3777;48.722;8.110;2023-03-23T15:31:49;4.90;;;3.20;;
7471;SDS011;3777;48.722;8.110;2023-03-23T15:34:26;4.07;;;3.13;;
7471;SDS011;3777;48.722;8.110;2023-03-23T15:36:59;5.70;;;4.70;;
7471;SDS011;3777;48.722;8.110;2023-03-23T15:39:28;4.30;;;3.90;;
7471;SDS011;3777;48.722;8.110;2023-03-23T15:41:56;5.60;;;5.10;;
7471;SDS011;3777;48.722;8.110;2023-03-23T15:44:26;5.47;;;3.10;;
7471;SDS011;3777;48.722;8.110;2023-03-23T15:49:42;4.50;;;3.43;;
7471;SDS011;3777;48.722;8.110;2023-03-23T15:52:10;6.00;;;4.67;;